createdAt,value
2023-01-27T00:01:18.500Z,4.70
2023-01-27T00:03:46.895Z,4.80
2023-01-27T00:06:16.211Z,4.70
2023-01-27T00:08:44.406Z,4.70
2023-01-27T00:11:30.446Z,4.70
2023-01-27T00:13:58.796Z,4.70
2023-01-27T00:16:28.426Z,5.10
2023-01-27T00:18:56.586Z,5.20
2023-01-27T00:21:42.174Z,5.10
2023-01-27T00:24:31.084Z,5.10
2023-01-27T00:26:59.748Z,4.90
2023-01-27T00:29:27.955Z,4.90
2023-01-27T00:32:14.877Z,4.80
2023-01-27T00:34:43.318Z,4.90
2023-01-27T00:37:11.597Z,4.80
2023-01-27T00:39:39.921Z,4.80
2023-01-27T00:42:11.268Z,4.80
2023-01-27T00:44:59.479Z,4.80
2023-01-27T00:47:29.195Z,4.80
2023-01-27T00:49:57.425Z,4.80
2023-01-27T00:52:25.724Z,4.80
2023-01-27T00:54:53.914Z,4.80
2023-01-27T00:57:22.380Z,4.80
2023-01-27T00:59:50.546Z,4.80
2023-01-27T01:02:19.822Z,4.80
2023-01-27T01:04:49.369Z,4.80
2023-01-27T01:07:17.592Z,4.70
2023-01-27T01:09:45.808Z,4.70
2023-01-27T01:12:14.096Z,4.80
2023-01-27T01:14:42.362Z,4.80
2023-01-27T01:17:10.712Z,4.80
2023-01-27T01:19:39.108Z,4.80
2023-01-27T01:22:08.734Z,4.80
2023-01-27T01:24:37.021Z,4.80
2023-01-27T01:27:05.498Z,4.80
2023-01-27T01:29:33.800Z,4.80
2023-01-27T01:32:01.966Z,4.90
2023-01-27T01:34:33.042Z,4.80
2023-01-27T01:37:01.245Z,4.80
2023-01-27T01:39:31.330Z,4.90
2023-01-27T01:41:59.958Z,4.80
2023-01-27T01:44:31.510Z,4.90
2023-01-27T01:47:01.422Z,4.80
2023-01-27T01:49:38.062Z,4.90
2023-01-27T01:52:11.991Z,4.80
2023-01-27T01:54:46.932Z,4.70
2023-01-27T01:57:23.365Z,4.70
2023-01-27T01:59:58.217Z,4.70
2023-01-27T02:02:27.338Z,4.70
2023-01-27T02:05:00.469Z,4.70
2023-01-27T02:07:36.673Z,4.70
2023-01-27T02:10:07.601Z,4.60
2023-01-27T02:12:37.318Z,4.60
2023-01-27T02:15:11.532Z,4.50
2023-01-27T02:17:40.227Z,4.50
2023-01-27T02:20:20.750Z,4.60
2023-01-27T02:23:03.546Z,4.60
2023-01-27T02:25:51.769Z,4.70
2023-01-27T02:28:20.322Z,4.60
2023-01-27T02:30:48.881Z,4.60
2023-01-27T02:33:17.578Z,4.50
2023-01-27T02:35:55.996Z,4.60
2023-01-27T02:38:26.539Z,4.70
2023-01-27T02:41:02.509Z,4.60
2023-01-27T02:43:30.774Z,4.60
2023-01-27T02:45:59.126Z,4.50
2023-01-27T02:48:27.470Z,4.50
2023-01-27T02:50:55.751Z,4.50
2023-01-27T02:53:24.165Z,4.40
2023-01-27T02:55:52.492Z,4.50
2023-01-27T02:58:22.220Z,4.40
2023-01-27T03:00:57.986Z,4.40
2023-01-27T03:03:26.431Z,4.40
2023-01-27T03:05:54.791Z,4.40
2023-01-27T03:08:23.882Z,4.40
2023-01-27T03:10:53.847Z,4.40
2023-01-27T03:13:25.872Z,4.40
2023-01-27T03:16:14.526Z,4.30
2023-01-27T03:18:47.303Z,4.40
2023-01-27T03:21:16.799Z,4.40
2023-01-27T03:23:45.929Z,4.30
2023-01-27T03:26:15.215Z,4.30
2023-01-27T03:29:08.573Z,4.40
2023-01-27T03:31:39.734Z,4.30
2023-01-27T03:34:08.106Z,4.30
2023-01-27T03:37:03.332Z,4.30
2023-01-27T03:39:50.337Z,4.30
2023-01-27T03:42:36.488Z,4.30
2023-01-27T03:45:24.966Z,4.30
2023-01-27T03:47:53.407Z,4.30
2023-01-27T03:50:31.048Z,4.30
2023-01-27T03:53:03.909Z,4.30
2023-01-27T03:55:32.730Z,4.20
2023-01-27T03:58:14.433Z,4.20
2023-01-27T04:00:44.114Z,4.20
2023-01-27T04:03:29.960Z,4.20
2023-01-27T04:06:15.584Z,4.20
2023-01-27T04:08:44.499Z,4.20
2023-01-27T04:11:31.859Z,4.20
2023-01-27T04:14:02.886Z,4.20
2023-01-27T04:16:33.245Z,4.20
2023-01-27T04:19:01.498Z,4.20
2023-01-27T04:21:30.179Z,4.20
2023-01-27T04:23:58.870Z,4.20
2023-01-27T04:26:33.043Z,4.20
2023-01-27T04:29:02.474Z,4.20
2023-01-27T04:31:32.731Z,4.20
2023-01-27T04:34:01.203Z,4.10
2023-01-27T04:36:29.486Z,4.10
2023-01-27T04:38:57.763Z,4.20
2023-01-27T04:41:25.983Z,4.20
2023-01-27T04:43:54.325Z,4.10
2023-01-27T04:46:22.580Z,4.20
2023-01-27T04:48:52.180Z,4.20
2023-01-27T04:51:20.489Z,4.10
2023-01-27T04:53:48.809Z,4.20
2023-01-27T04:56:25.818Z,4.10
2023-01-27T04:58:54.923Z,4.10
2023-01-27T05:01:23.475Z,4.10
2023-01-27T05:03:53.203Z,4.10
2023-01-27T05:06:21.596Z,4.10
2023-01-27T05:08:50.080Z,4.20
2023-01-27T05:11:19.742Z,4.20
2023-01-27T05:13:48.579Z,4.30
2023-01-27T05:16:20.233Z,4.20
2023-01-27T05:18:50.915Z,4.20
2023-01-27T05:21:23.040Z,4.10
2023-01-27T05:23:51.956Z,4.10
2023-01-27T05:26:22.725Z,4.10
2023-01-27T05:28:53.442Z,4.10
2023-01-27T05:31:24.374Z,4.10
2023-01-27T05:33:54.606Z,4.00
2023-01-27T05:36:26.096Z,4.00
2023-01-27T05:38:55.922Z,4.00
2023-01-27T05:41:24.802Z,4.00
2023-01-27T05:43:56.539Z,4.10
2023-01-27T05:46:27.808Z,4.00
2023-01-27T05:49:00.105Z,4.00
2023-01-27T05:51:33.112Z,4.10
2023-01-27T05:54:01.786Z,4.10
2023-01-27T05:56:30.111Z,4.00
2023-01-27T05:58:59.543Z,4.00
2023-01-27T06:01:30.822Z,4.00
2023-01-27T06:03:59.854Z,3.90
2023-01-27T06:06:32.579Z,3.90
2023-01-27T06:09:01.640Z,4.00
2023-01-27T06:11:30.060Z,3.90
2023-01-27T06:13:58.371Z,3.90
2023-01-27T06:16:26.596Z,3.90
2023-01-27T06:18:54.870Z,3.80
2023-01-27T06:21:23.114Z,3.80
2023-01-27T06:23:53.410Z,3.80
2023-01-27T06:26:21.973Z,3.80
2023-01-27T06:28:50.473Z,3.80
2023-01-27T06:31:21.660Z,3.90
2023-01-27T06:33:50.626Z,3.80
2023-01-27T06:36:22.136Z,3.80
2023-01-27T06:38:52.395Z,3.90
2023-01-27T06:41:21.167Z,3.90
2023-01-27T06:43:49.417Z,3.90
2023-01-27T06:46:17.880Z,3.80
2023-01-27T06:48:46.130Z,3.80
2023-01-27T06:51:14.753Z,3.80
2023-01-27T06:53:43.149Z,3.80
2023-01-27T06:56:12.727Z,3.80
2023-01-27T06:58:40.921Z,3.90
2023-01-27T07:01:09.667Z,3.80
2023-01-27T07:03:37.907Z,3.80
2023-01-27T07:06:07.130Z,3.90
2023-01-27T07:08:35.380Z,3.80
2023-01-27T07:11:05.440Z,3.80
2023-01-27T07:13:35.119Z,3.80
2023-01-27T07:16:03.437Z,3.70
2023-01-27T07:18:32.101Z,3.70
2023-01-27T07:21:00.436Z,3.60
2023-01-27T07:23:28.647Z,3.60
2023-01-27T07:25:57.090Z,3.60
2023-01-27T07:28:26.218Z,3.60
2023-01-27T07:30:55.873Z,3.60
2023-01-27T07:33:25.220Z,3.50
2023-01-27T07:35:53.491Z,3.50
2023-01-27T07:38:22.012Z,3.40
2023-01-27T07:40:50.219Z,3.40
2023-01-27T07:43:18.462Z,3.40
2023-01-27T07:45:49.052Z,3.50
2023-01-27T07:48:18.742Z,3.50
2023-01-27T07:50:47.129Z,3.50
2023-01-27T07:53:15.608Z,3.40
2023-01-27T07:55:44.128Z,3.40
2023-01-27T07:58:12.334Z,3.40
2023-01-27T08:00:40.811Z,3.60
2023-01-27T08:03:15.461Z,3.60
2023-01-27T08:05:45.079Z,3.60
2023-01-27T08:08:13.395Z,3.60
2023-01-27T08:10:41.764Z,3.60
2023-01-27T08:13:10.054Z,3.60
2023-01-27T08:15:38.298Z,3.60
2023-01-27T08:18:06.544Z,3.60
2023-01-27T08:20:34.779Z,3.60
2023-01-27T08:23:04.623Z,3.60
2023-01-27T08:25:32.899Z,3.50
2023-01-27T08:28:01.421Z,3.60
2023-01-27T08:30:29.734Z,3.50
2023-01-27T08:32:57.967Z,3.50
2023-01-27T08:35:26.158Z,3.50
2023-01-27T08:37:54.410Z,3.50
2023-01-27T08:40:24.065Z,3.50
2023-01-27T08:42:52.594Z,3.60
2023-01-27T08:45:20.817Z,3.50
2023-01-27T08:47:49.245Z,3.60
2023-01-27T08:50:17.744Z,3.50
2023-01-27T08:52:46.198Z,3.60
2023-01-27T08:55:15.429Z,3.60
2023-01-27T08:57:45.300Z,3.60
2023-01-27T09:00:15.212Z,3.50
2023-01-27T09:02:46.424Z,3.50
2023-01-27T09:05:15.213Z,3.60
2023-01-27T09:07:43.418Z,3.50
2023-01-27T09:10:19.726Z,3.50
2023-01-27T09:12:49.479Z,3.50
2023-01-27T09:15:17.775Z,3.40
2023-01-27T09:17:47.109Z,3.40
2023-01-27T09:20:16.094Z,3.40
2023-01-27T09:22:44.490Z,3.50
2023-01-27T09:25:17.380Z,3.50
2023-01-27T09:27:45.965Z,3.50
2023-01-27T09:30:17.316Z,3.50
2023-01-27T09:32:45.790Z,3.50
2023-01-27T09:35:14.608Z,3.50
2023-01-27T09:37:50.819Z,3.40
2023-01-27T09:40:32.301Z,3.40
2023-01-27T09:43:33.962Z,3.40
2023-01-27T09:46:33.182Z,3.50
2023-01-27T09:49:37.324Z,3.50
2023-01-27T09:52:38.393Z,3.50
2023-01-27T09:55:22.887Z,3.40
2023-01-27T09:58:03.515Z,3.40
2023-01-27T10:00:47.142Z,3.40
2023-01-27T10:03:50.612Z,3.40
2023-01-27T10:06:47.481Z,3.40
2023-01-27T10:09:45.089Z,3.50
2023-01-27T10:12:35.358Z,3.50
2023-01-27T10:15:19.977Z,3.50
2023-01-27T10:18:03.933Z,3.50
2023-01-27T10:20:48.597Z,3.50
2023-01-27T10:23:35.836Z,3.50
2023-01-27T10:26:19.218Z,3.60
2023-01-27T10:28:56.081Z,3.60
2023-01-27T10:31:30.345Z,3.70
2023-01-27T10:34:07.141Z,3.70
2023-01-27T10:36:47.345Z,3.70
2023-01-27T10:39:27.448Z,3.70
2023-01-27T10:42:11.115Z,3.60
2023-01-27T10:45:01.896Z,3.60
2023-01-27T10:47:47.825Z,3.70
2023-01-27T10:50:22.474Z,3.70
2023-01-27T10:53:01.150Z,3.70
2023-01-27T10:55:42.071Z,3.60
2023-01-27T10:58:20.165Z,3.60
2023-01-27T11:03:48.568Z,3.60
2023-01-27T11:06:22.605Z,3.60
2023-01-27T11:08:57.496Z,3.60
2023-01-27T11:11:46.458Z,3.60
2023-01-27T11:14:29.105Z,3.60
2023-01-27T11:17:09.308Z,3.50
2023-01-27T11:19:46.934Z,3.50
2023-01-27T11:22:23.939Z,3.50
2023-01-27T11:25:05.742Z,3.50
2023-01-27T11:27:56.671Z,3.60
2023-01-27T11:30:35.163Z,3.50
2023-01-27T11:33:18.512Z,3.50
2023-01-27T11:35:47.095Z,3.60
2023-01-27T11:38:20.642Z,3.60
2023-01-27T11:40:54.281Z,3.70
2023-01-27T11:43:27.551Z,3.70
2023-01-27T11:46:03.149Z,3.70
2023-01-27T11:48:41.816Z,3.70
2023-01-27T11:51:23.858Z,3.80
2023-01-27T11:54:04.158Z,4.00
2023-01-27T11:56:37.412Z,4.10
2023-01-27T11:59:12.027Z,4.10
2023-01-27T12:01:53.737Z,4.10
2023-01-27T12:04:36.134Z,3.90
2023-01-27T12:07:13.924Z,3.90
2023-01-27T12:09:43.130Z,3.90
2023-01-27T12:12:23.493Z,3.90
2023-01-27T12:14:54.859Z,4.00
2023-01-27T12:17:31.496Z,4.10
2023-01-27T12:20:06.353Z,4.20
2023-01-27T12:22:39.971Z,4.10
2023-01-27T12:25:19.303Z,4.20
2023-01-27T12:27:54.980Z,4.20
2023-01-27T12:30:27.595Z,4.10
2023-01-27T12:32:57.385Z,4.10
2023-01-27T12:35:30.295Z,4.00
2023-01-27T12:38:04.076Z,4.00
2023-01-27T12:40:34.982Z,4.00
2023-01-27T12:43:14.361Z,3.90
2023-01-27T12:45:44.288Z,3.90
2023-01-27T12:48:22.950Z,3.80
2023-01-27T12:51:07.102Z,3.90
2023-01-27T12:53:35.434Z,3.80
2023-01-27T12:56:14.705Z,3.70
2023-01-27T12:58:47.159Z,3.80
2023-01-27T13:01:30.009Z,3.70
2023-01-27T13:04:02.103Z,3.60
2023-01-27T13:06:39.363Z,3.60
2023-01-27T13:09:25.536Z,3.60
2023-01-27T13:11:56.041Z,3.60
2023-01-27T13:14:30.098Z,3.50
2023-01-27T13:16:59.471Z,3.40
2023-01-27T13:19:44.148Z,3.50
2023-01-27T13:22:21.016Z,3.60
2023-01-27T13:24:56.722Z,3.60
2023-01-27T13:27:26.906Z,3.50
2023-01-27T13:30:07.235Z,3.60
2023-01-27T13:32:38.315Z,3.60
2023-01-27T13:35:20.709Z,3.60
2023-01-27T13:38:04.029Z,3.50
2023-01-27T13:40:39.915Z,3.50
2023-01-27T13:43:20.164Z,3.40
2023-01-27T13:45:58.308Z,3.40
2023-01-27T13:48:33.796Z,3.50
2023-01-27T13:51:09.423Z,3.50
2023-01-27T13:53:38.931Z,3.50
2023-01-27T13:56:25.819Z,3.40
2023-01-27T13:59:08.018Z,3.50
2023-01-27T14:01:54.432Z,3.40
2023-01-27T14:04:43.508Z,3.40
2023-01-27T14:07:26.525Z,3.40
2023-01-27T14:10:17.240Z,3.30
2023-01-27T14:13:16.223Z,3.30
2023-01-27T14:15:54.785Z,3.30
2023-01-27T14:18:30.965Z,3.20
2023-01-27T14:21:17.547Z,3.20
2023-01-27T14:24:01.240Z,3.10
2023-01-27T14:26:49.889Z,3.10
2023-01-27T14:29:31.178Z,3.10
2023-01-27T14:32:12.564Z,3.00
2023-01-27T14:35:12.211Z,3.00
2023-01-27T14:37:54.108Z,3.10
2023-01-27T14:40:28.091Z,3.00
2023-01-27T14:43:20.837Z,3.10
2023-01-27T14:45:56.924Z,3.10
2023-01-27T14:48:57.642Z,3.00
2023-01-27T14:51:37.916Z,3.10
2023-01-27T14:54:32.770Z,3.10
2023-01-27T14:57:21.567Z,3.10
2023-01-27T15:00:06.313Z,3.10
2023-01-27T15:02:48.194Z,3.10
2023-01-27T15:05:27.185Z,3.30
2023-01-27T15:08:06.791Z,3.60
2023-01-27T15:10:37.275Z,4.00
2023-01-27T15:13:44.663Z,4.10
2023-01-27T15:16:43.186Z,4.30
2023-01-27T15:19:49.921Z,3.90
2023-01-27T15:22:47.860Z,3.50
2023-01-27T15:25:33.229Z,3.30
2023-01-27T15:28:03.576Z,3.10
2023-01-27T15:30:34.871Z,3.00
2023-01-27T15:33:03.159Z,2.90
2023-01-27T15:35:41.409Z,2.80
2023-01-27T15:38:29.541Z,2.80
2023-01-27T15:41:04.690Z,2.70
2023-01-27T15:43:37.784Z,2.70
2023-01-27T15:46:32.766Z,2.70
2023-01-27T15:49:04.597Z,2.70
2023-01-27T15:51:37.827Z,2.70
2023-01-27T15:54:10.361Z,2.60
2023-01-27T15:56:47.717Z,2.60
2023-01-27T15:59:22.045Z,2.60
2023-01-27T16:02:01.437Z,2.60
2023-01-27T16:04:33.170Z,2.70
2023-01-27T16:07:05.664Z,2.60
2023-01-27T16:09:43.462Z,2.60
2023-01-27T16:12:37.145Z,2.60
2023-01-27T16:15:35.059Z,2.60
2023-01-27T16:18:28.354Z,2.70
2023-01-27T16:21:06.397Z,2.70
2023-01-27T16:23:49.758Z,2.60
2023-01-27T16:26:35.863Z,2.60
2023-01-27T16:29:27.071Z,2.60
2023-01-27T16:32:03.752Z,2.70
2023-01-27T16:34:40.796Z,2.60
2023-01-27T16:37:32.361Z,2.50
2023-01-27T16:40:06.681Z,2.60
2023-01-27T16:42:39.607Z,2.40
2023-01-27T16:45:20.536Z,2.40
2023-01-27T16:47:55.066Z,2.50
2023-01-27T16:50:36.051Z,2.50
2023-01-27T16:53:07.925Z,2.50
2023-01-27T16:55:36.428Z,2.50
2023-01-27T16:58:04.945Z,2.50
2023-01-27T17:00:37.141Z,2.50
2023-01-27T17:03:16.130Z,2.60
2023-01-27T17:05:44.827Z,2.60
2023-01-27T17:08:22.529Z,2.60
2023-01-27T17:10:53.192Z,2.70
2023-01-27T17:13:30.397Z,2.70
2023-01-27T17:16:02.535Z,2.70
2023-01-27T17:18:37.600Z,2.70
2023-01-27T17:21:10.244Z,2.60
2023-01-27T17:23:40.146Z,2.60
2023-01-27T17:26:16.381Z,2.60
2023-01-27T17:28:48.579Z,2.70
2023-01-27T17:31:23.362Z,2.70
2023-01-27T17:34:00.569Z,2.70
2023-01-27T17:36:29.133Z,2.80
2023-01-27T17:39:01.449Z,2.70
2023-01-27T17:41:37.696Z,2.60
2023-01-27T17:44:13.369Z,2.70
2023-01-27T17:46:43.090Z,2.80
2023-01-27T17:49:17.272Z,2.80
2023-01-27T17:51:51.241Z,2.70
2023-01-27T17:54:30.004Z,2.70
2023-01-27T17:57:06.729Z,2.60
2023-01-27T17:59:38.626Z,2.60
2023-01-27T18:02:20.442Z,2.60
2023-01-27T18:04:49.739Z,2.80
2023-01-27T18:07:18.062Z,2.80
2023-01-27T18:09:53.859Z,2.70
2023-01-27T18:12:33.123Z,2.70
2023-01-27T18:15:39.556Z,2.60
2023-01-27T18:18:24.008Z,2.70
2023-01-27T18:21:05.679Z,2.70
2023-01-27T18:23:37.236Z,2.70
2023-01-27T18:26:18.661Z,2.60
2023-01-27T18:28:51.253Z,2.60
2023-01-27T18:31:25.400Z,2.60
2023-01-27T18:34:22.103Z,2.60
2023-01-27T18:36:55.407Z,2.60
2023-01-27T18:39:35.171Z,2.70
2023-01-27T18:42:06.992Z,2.80
2023-01-27T18:44:35.773Z,2.70
2023-01-27T18:47:28.291Z,2.70
2023-01-27T18:50:05.262Z,2.70
2023-01-27T18:52:33.403Z,2.80
2023-01-27T18:55:13.098Z,2.70
2023-01-27T18:57:41.706Z,2.70
2023-01-27T19:00:13.009Z,2.80
2023-01-27T19:02:45.695Z,2.80
2023-01-27T19:05:22.363Z,2.80
2023-01-27T19:07:50.976Z,2.80
2023-01-27T19:10:24.803Z,2.80
2023-01-27T19:12:53.388Z,2.80
2023-01-27T19:15:23.996Z,2.90
2023-01-27T19:17:55.817Z,2.90
2023-01-27T19:20:28.622Z,2.80
2023-01-27T19:22:58.756Z,2.80
2023-01-27T19:25:31.192Z,2.80
2023-01-27T19:28:05.281Z,2.70
2023-01-27T19:30:37.041Z,2.70
2023-01-27T19:33:17.111Z,2.80
2023-01-27T19:35:51.075Z,2.70
2023-01-27T19:38:19.575Z,2.70
2023-01-27T19:40:47.921Z,2.60
2023-01-27T19:43:17.188Z,2.70
2023-01-27T19:45:49.431Z,2.60
2023-01-27T19:48:21.453Z,2.70
2023-01-27T19:50:52.902Z,2.80
2023-01-27T19:53:21.609Z,2.70
2023-01-27T19:55:50.863Z,2.60
2023-01-27T19:58:25.854Z,2.60
2023-01-27T20:00:55.585Z,2.70
2023-01-27T20:03:24.447Z,2.70
2023-01-27T20:05:54.074Z,2.60
2023-01-27T20:08:22.927Z,2.60
2023-01-27T20:10:52.290Z,2.60
2023-01-27T20:13:21.992Z,2.70
2023-01-27T20:15:50.220Z,2.70
2023-01-27T20:18:21.426Z,2.70
2023-01-27T20:20:51.227Z,2.60
2023-01-27T20:23:20.710Z,2.60
2023-01-27T20:25:48.935Z,2.70
2023-01-27T20:28:17.211Z,2.70
2023-01-27T20:30:45.441Z,2.70
2023-01-27T20:33:15.154Z,2.60
2023-01-27T20:35:43.366Z,2.80
2023-01-27T20:38:11.583Z,2.60
2023-01-27T20:40:41.281Z,2.70
2023-01-27T20:43:09.572Z,2.70
2023-01-27T20:45:38.927Z,2.60
2023-01-27T20:48:07.471Z,2.60
2023-01-27T20:50:35.613Z,2.60
2023-01-27T20:53:04.571Z,2.60
2023-01-27T20:55:32.829Z,2.60
2023-01-27T20:58:02.397Z,2.60
2023-01-27T21:00:30.664Z,2.70
2023-01-27T21:02:58.948Z,2.60
2023-01-27T21:05:27.107Z,2.60
2023-01-27T21:07:55.286Z,2.70
2023-01-27T21:10:24.798Z,2.70
2023-01-27T21:12:53.026Z,2.60
2023-01-27T21:15:22.580Z,2.50
2023-01-27T21:17:51.818Z,2.60
2023-01-27T21:20:20.056Z,2.50
2023-01-27T21:22:48.489Z,2.50
2023-01-27T21:25:17.328Z,2.50
2023-01-27T21:27:47.918Z,2.40
2023-01-27T21:30:16.614Z,2.40
2023-01-27T21:32:46.213Z,2.40
2023-01-27T21:35:15.044Z,2.40
2023-01-27T21:37:43.640Z,2.40
2023-01-27T21:40:14.312Z,2.50
2023-01-27T21:42:59.486Z,2.50
2023-01-27T21:45:28.586Z,2.50
2023-01-27T21:47:58.121Z,2.50
2023-01-27T21:50:26.351Z,2.60
2023-01-27T21:52:54.607Z,2.60
2023-01-27T21:55:25.517Z,2.60
2023-01-27T21:57:56.348Z,2.50
2023-01-27T22:00:27.262Z,2.50
2023-01-27T22:02:59.359Z,2.50
2023-01-27T22:05:29.170Z,2.60
2023-01-27T22:07:57.970Z,2.70
2023-01-27T22:10:29.291Z,2.60
2023-01-27T22:12:59.287Z,2.60
2023-01-27T22:15:29.405Z,2.70
2023-01-27T22:17:59.668Z,2.70
2023-01-27T22:20:28.748Z,2.80
2023-01-27T22:22:57.106Z,2.90
2023-01-27T22:25:26.958Z,2.80
2023-01-27T22:27:56.033Z,2.70
2023-01-27T22:30:24.504Z,2.60
2023-01-27T22:32:52.844Z,2.60
2023-01-27T22:35:22.523Z,2.70
2023-01-27T22:37:52.783Z,2.70
2023-01-27T22:40:21.150Z,2.70
2023-01-27T22:42:50.124Z,2.70
2023-01-27T22:45:18.829Z,2.70
2023-01-27T22:47:49.300Z,2.70
2023-01-27T22:50:18.297Z,2.70
2023-01-27T22:52:47.897Z,2.70
2023-01-27T22:55:16.515Z,2.70
2023-01-27T22:57:47.704Z,2.70
2023-01-27T23:00:17.124Z,2.70
2023-01-27T23:02:45.374Z,2.60
2023-01-27T23:05:13.904Z,2.60
2023-01-27T23:07:42.366Z,2.60
2023-01-27T23:10:12.517Z,2.60
2023-01-27T23:12:40.775Z,2.60
2023-01-27T23:15:10.494Z,2.60
2023-01-27T23:17:38.798Z,2.60
2023-01-27T23:20:09.282Z,2.60
2023-01-27T23:22:37.577Z,2.60
2023-01-27T23:25:07.069Z,2.60
2023-01-27T23:27:36.700Z,2.70
2023-01-27T23:30:08.950Z,2.70
2023-01-27T23:32:38.133Z,2.70
2023-01-27T23:35:07.949Z,2.70
2023-01-27T23:37:36.387Z,2.60
2023-01-27T23:40:05.214Z,2.60
2023-01-27T23:42:34.158Z,2.80
2023-01-27T23:45:04.503Z,2.70
2023-01-27T23:47:32.790Z,2.70
2023-01-27T23:50:01.051Z,2.60
2023-01-27T23:52:30.163Z,2.60
2023-01-27T23:54:58.381Z,2.60
2023-01-27T23:57:26.554Z,2.60
2023-01-27T23:59:54.868Z,2.70
